Time;durP1;ratioP1;P1;durP2;ratioP2;P2;SDS_P1;SDS_P2;PMS_P1;PMS_P2;Temp;Humidity;BMP_temperature;BMP_pressure;BME280_temperature;BME280_humidity;BME280_pressure;Samples;Min_cycle;Max_cycle;Signal;HPM_P1;HPM_P2
2023/01/30 00:00:04;;;;;;;22.43;11.27;;;;;;;-1.29;88.84;99412.53;4955109;28;20247;-56
2023/01/30 00:02:31;;;;;;;23.30;11.73;;;;;;;-1.36;88.91;99400.84;4956272;28;20217;-58
2023/01/30 00:04:57;;;;;;;20.67;10.60;;;;;;;-1.42;89.70;99390.81;4955315;28;20235;-59
2023/01/30 00:07:24;;;;;;;24.33;11.87;;;;;;;-1.43;89.51;99389.16;4957068;28;20300;-59
2023/01/30 00:09:52;;;;;;;23.00;11.87;;;;;;;-1.54;89.96;99399.78;4954688;28;20232;-59
2023/01/30 00:12:18;;;;;;;23.07;11.43;;;;;;;-1.41;90.68;99400.19;4957322;28;20287;-60
2023/01/30 00:14:45;;;;;;;21.20;11.13;;;;;;;-1.43;90.09;99392.56;4954916;28;20655;-56
2023/01/30 00:17:11;;;;;;;22.77;11.70;;;;;;;-1.53;89.88;99399.72;4958930;28;20236;-58
2023/01/30 00:19:38;;;;;;;25.70;12.10;;;;;;;-1.49;90.16;99396.16;4954620;28;20231;-58
2023/01/30 00:22:04;;;;;;;22.77;11.80;;;;;;;-1.54;89.82;99399.78;4958238;28;20631;-58
2023/01/30 00:24:31;;;;;;;22.53;12.03;;;;;;;-1.41;88.85;99400.19;4958726;28;20965;-59
2023/01/30 00:26:59;;;;;;;24.27;11.70;;;;;;;-1.51;90.24;99380.03;4953980;28;20223;-59
2023/01/30 00:29:25;;;;;;;23.33;12.00;;;;;;;-1.56;90.79;99370.84;4970500;28;20824;-59
2023/01/30 00:31:54;;;;;;;22.90;12.23;;;;;;;-1.63;91.13;99383.88;4954733;28;20236;-58
2023/01/30 00:34:20;;;;;;;23.93;12.03;;;;;;;-1.37;91.12;99384.66;4957726;28;20760;-59
2023/01/30 00:36:47;;;;;;;23.07;11.50;;;;;;;-1.41;90.10;99388.22;4954364;28;20705;-58
2023/01/30 00:39:13;;;;;;;22.53;11.10;;;;;;;-1.33;89.86;99413.53;4956210;28;20961;-58
2023/01/30 00:47:09;;;;;;;24.60;11.17;;;;;;;-1.14;87.89;99444.47;4947970;28;20243;-59
2023/01/30 00:49:36;;;;;;;24.70;10.97;;;;;;;-1.12;87.58;99465.75;4972383;28;20245;-59
2023/01/30 00:52:04;;;;;;;21.57;11.67;;;;;;;-1.20;88.22;99483.94;4958236;28;20239;-58
2023/01/30 00:54:30;;;;;;;25.07;13.07;;;;;;;-1.29;88.70;99486.81;4972727;28;20240;-60
2023/01/30 00:56:58;;;;;;;26.97;13.23;;;;;;;-1.37;89.51;99510.16;4957866;28;20249;-59
2023/01/30 00:59:26;;;;;;;23.90;12.10;;;;;;;-1.38;90.19;99525.56;4959409;28;20235;-60
2023/01/30 01:01:53;;;;;;;26.10;12.97;;;;;;;-1.45;91.15;99524.09;4956730;28;20224;-59
2023/01/30 01:04:19;;;;;;;24.67;13.30;;;;;;;-1.51;91.62;99523.41;4962429;28;20290;-59
2023/01/30 01:06:46;;;;;;;24.33;13.20;;;;;;;-1.54;92.36;99530.38;4958044;28;20285;-59
2023/01/30 01:09:13;;;;;;;24.40;13.27;;;;;;;-1.58;93.51;99539.06;4962099;28;20230;-59
2023/01/30 01:11:40;;;;;;;27.60;13.57;;;;;;;-1.59;93.28;99540.75;4957397;28;20810;-59
2023/01/30 01:14:07;;;;;;;26.43;14.10;;;;;;;-1.60;93.58;99544.25;4961042;28;20220;-59
2023/01/30 01:16:36;;;;;;;26.23;13.80;;;;;;;-1.58;93.89;99532.19;4960068;28;20283;-60
2023/01/30 01:19:03;;;;;;;31.87;13.77;;;;;;;-1.56;94.60;99537.28;4957770;28;20750;-59
2023/01/30 01:21:30;;;;;;;28.80;14.40;;;;;;;-1.56;93.81;99538.09;4961029;28;20240;-59
2023/01/30 01:23:58;;;;;;;25.80;13.80;;;;;;;-1.66;93.83;99532.47;4958012;28;20709;-58
2023/01/30 01:26:25;;;;;;;25.63;13.93;;;;;;;-1.67;94.08;99522.28;4961616;28;20228;-58
2023/01/30 01:28:54;;;;;;;27.20;13.53;;;;;;;-1.61;94.64;99516.13;4957069;28;20594;-60
2023/01/30 01:31:22;;;;;;;28.97;13.37;;;;;;;-1.56;93.81;99524.47;4961795;28;20232;-58
2023/01/30 01:33:50;;;;;;;27.60;14.77;;;;;;;-1.46;93.20;99510.47;4956118;28;20299;-59
2023/01/30 01:36:18;;;;;;;24.60;13.53;;;;;;;-1.37;92.63;99525.53;4959158;28;20226;-59
2023/01/30 01:38:44;;;;;;;27.57;13.83;;;;;;;-1.23;91.00;99537.03;4957432;28;20241;-59
2023/01/30 01:41:11;;;;;;;26.03;14.80;;;;;;;-1.31;90.58;99544.13;4961306;28;20307;-58
2023/01/30 01:43:54;;;;;;;25.57;13.03;;;;;;;-1.45;92.23;99524.94;4949128;28;20291;-59
2023/01/30 01:46:25;;;;;;;28.17;14.23;;;;;;;-1.49;92.94;99520.81;4959473;28;20219;-58
2023/01/30 01:48:57;;;;;;;28.40;15.50;;;;;;;-1.48;93.27;99518.19;4956102;28;20230;-57
2023/01/30 01:51:29;;;;;;;28.00;15.40;;;;;;;-1.47;93.36;99536.97;4960744;28;20342;-56
2023/01/30 01:54:01;;;;;;;33.10;15.03;;;;;;;-1.49;93.56;99543.88;4956877;28;20260;-59
2023/01/30 01:56:29;;;;;;;31.37;16.00;;;;;;;-1.52;94.12;99532.00;4959893;28;20292;-59
2023/01/30 01:59:00;;;;;;;29.97;15.63;;;;;;;-1.49;94.80;99515.69;4965971;28;20282;-58
2023/01/30 02:01:29;;;;;;;33.33;16.53;;;;;;;-1.46;94.11;99538.66;4959918;28;20236;-58
2023/01/30 02:04:03;;;;;;;31.23;15.43;;;;;;;-1.45;93.59;99550.56;4956923;28;20232;-57
2023/01/30 02:06:30;;;;;;;29.67;16.70;;;;;;;-1.43;94.49;99535.97;4959545;28;21285;-58
2023/01/30 02:09:02;;;;;;;32.17;17.40;;;;;;;-1.44;94.58;99521.50;4953590;28;20315;-58
2023/01/30 02:11:31;;;;;;;34.13;18.00;;;;;;;-1.54;93.74;99508.16;4974214;28;20594;-58
2023/01/30 02:13:59;;;;;;;36.03;17.97;;;;;;;-1.62;94.73;99484.56;4956411;28;32454;-59
2023/01/30 02:16:26;;;;;;;35.13;18.20;;;;;;;-1.76;94.92;99490.13;4959474;28;20237;-59
2023/01/30 02:18:53;;;;;;;32.57;17.77;;;;;;;-1.95;95.67;99500.16;4956570;28;20232;-56
2023/01/30 02:22:01;;;;;;;33.63;17.07;;;;;;;-2.02;96.94;99507.16;4958155;28;20230;-56
2023/01/30 02:24:54;;;;;;;34.43;16.90;;;;;;;-1.88;96.76;99493.09;4946621;28;20226;-58
2023/01/30 02:27:37;;;;;;;30.77;16.03;;;;;;;-1.93;96.62;99498.38;4953855;28;20255;-58
2023/01/30 02:30:37;;;;;;;28.97;15.73;;;;;;;-1.93;96.81;99491.53;4963877;28;20227;-58
2023/01/30 02:33:17;;;;;;;30.10;15.40;;;;;;;-1.87;96.35;99464.91;4967114;28;20718;-58
2023/01/30 02:35:54;;;;;;;27.53;14.47;;;;;;;-1.88;96.49;99462.38;4970233;28;20383;-58
2023/01/30 02:38:34;;;;;;;28.07;14.23;;;;;;;-1.83;95.71;99445.16;4966141;28;20587;-57
2023/01/30 02:41:13;;;;;;;27.60;14.47;;;;;;;-1.86;94.53;99414.56;4968816;28;20574;-57
2023/01/30 02:43:49;;;;;;;28.07;14.33;;;;;;;-1.75;94.38;99419.31;4963970;28;20219;-58
2023/01/30 02:46:22;;;;;;;27.37;14.67;;;;;;;-1.76;94.40;99405.66;4956611;28;20230;-58
2023/01/30 02:48:56;;;;;;;30.47;14.67;;;;;;;-1.69;94.30;99393.50;4969555;28;20284;-57
2023/01/30 02:51:27;;;;;;;24.93;13.80;;;;;;;-1.71;94.13;99390.16;4960354;28;20216;-58
2023/01/30 02:53:55;;;;;;;27.13;13.97;;;;;;;-1.63;92.92;99381.31;4960907;28;20241;-58
2023/01/30 02:56:21;;;;;;;29.67;15.47;;;;;;;-1.49;92.51;99375.69;4962827;28;20223;-55
2023/01/30 02:58:51;;;;;;;26.00;13.50;;;;;;;-1.45;91.90;99368.75;4960226;28;20237;-58
2023/01/30 03:01:41;;;;;;;28.97;14.37;;;;;;;-1.44;91.02;99372.97;4962562;28;20240;-58
2023/01/30 03:04:31;;;;;;;27.27;13.50;;;;;;;-1.45;91.46;99385.81;4958739;28;20214;-58
2023/01/30 03:07:12;;;;;;;23.20;12.73;;;;;;;-1.40;91.59;99381.34;4954479;28;20762;-57
2023/01/30 03:09:47;;;;;;;26.87;13.80;;;;;;;-1.40;91.03;99364.28;4960831;28;20222;-59
2023/01/30 03:12:22;;;;;;;26.77;13.50;;;;;;;-1.39;90.39;99336.94;4964540;28;20235;-58
2023/01/30 03:14:55;;;;;;;24.67;10.93;;;;;;;-1.26;85.81;99311.72;4961485;28;20223;-58
2023/01/30 03:17:25;;;;;;;18.63;9.83;;;;;;;-1.12;85.74;99276.16;4963470;28;20226;-57
2023/01/30 03:19:55;;;;;;;21.03;11.03;;;;;;;-0.95;84.46;99279.75;4961526;28;20233;-58
2023/01/30 03:22:22;;;;;;;18.43;10.10;;;;;;;-0.87;82.89;99282.81;4965688;28;20224;-58
2023/01/30 03:24:51;;;;;;;19.97;10.93;;;;;;;-0.80;82.47;99252.66;4961166;28;20234;-58
2023/01/30 03:27:19;;;;;;;16.40;9.50;;;;;;;-0.74;81.32;99252.41;4965425;28;20234;-58
2023/01/30 03:29:47;;;;;;;18.87;8.87;;;;;;;-0.71;80.09;99254.84;4960319;28;20248;-59
2023/01/30 03:32:15;;;;;;;18.43;9.33;;;;;;;-0.62;79.34;99264.72;4963389;28;20230;-56
2023/01/30 03:34:41;;;;;;;18.50;8.60;;;;;;;-0.62;80.57;99280.13;4961496;28;20302;-58
2023/01/30 03:37:09;;;;;;;13.40;7.17;;;;;;;-0.51;79.35;99281.38;4963972;28;20240;-58
2023/01/30 03:39:36;;;;;;;12.33;7.00;;;;;;;-0.42;79.53;99286.13;4978734;28;20235;-60
2023/01/30 03:42:05;;;;;;;13.80;6.90;;;;;;;-0.33;78.35;99301.13;4961115;28;20770;-57
2023/01/30 03:44:32;;;;;;;10.07;5.63;;;;;;;-0.20;78.29;99304.00;4980601;28;20228;-58
2023/01/30 03:46:59;;;;;;;10.43;6.03;;;;;;;-0.23;78.71;99314.41;4961456;28;20231;-59
2023/01/30 03:49:26;;;;;;;10.47;5.77;;;;;;;-0.25;79.36;99308.50;4967439;28;20231;-58
2023/01/30 03:51:53;;;;;;;11.80;5.93;;;;;;;-0.23;77.71;99305.88;4960745;28;20335;-59
2023/01/30 03:54:21;;;;;;;11.97;6.20;;;;;;;-0.24;77.27;99325.56;4964081;28;20223;-59
2023/01/30 03:56:47;;;;;;;10.47;6.07;;;;;;;-0.16;76.39;99315.81;4961675;28;20248;-58
2023/01/30 03:59:14;;;;;;;11.63;6.67;;;;;;;-0.20;75.74;99313.44;4955110;28;20692;-60
2023/01/30 04:04:30;;;;;;;9.30;5.33;;;;;;;-0.09;74.60;99313.00;5483391;23;20223;-58
2023/01/30 04:06:57;;;;;;;10.27;6.10;;;;;;;-0.06;72.40;99315.44;4987804;28;20239;-57
2023/01/30 04:09:25;;;;;;;8.70;4.80;;;;;;;0.00;71.36;99297.19;4994908;28;20234;-59
2023/01/30 04:11:53;;;;;;;7.50;4.67;;;;;;;0.08;70.63;99294.28;4998402;28;20233;-58
2023/01/30 04:14:19;;;;;;;8.10;4.70;;;;;;;0.22;69.61;99289.38;4996902;28;20236;-59
2023/01/30 04:17:06;;;;;;;8.43;4.83;;;;;;;0.38;67.74;99304.09;4993567;28;20242;-58
2023/01/30 04:19:55;;;;;;;9.53;5.80;;;;;;;0.43;66.37;99308.09;4993441;28;20594;-57
2023/01/30 04:22:22;;;;;;;11.10;6.67;;;;;;;0.44;66.90;99304.63;4998825;28;20262;-58
2023/01/30 04:24:50;;;;;;;12.50;7.33;;;;;;;0.38;68.01;99299.78;5000418;28;20231;-59
2023/01/30 04:27:17;;;;;;;13.03;7.57;;;;;;;0.32;69.92;99294.09;5004762;28;20232;-58
2023/01/30 04:32:54;;;;;;;15.43;8.23;;;;;;;0.12;72.69;99304.31;5070218;23;20231;-59
2023/01/30 04:35:21;;;;;;;18.53;9.13;;;;;;;0.10;72.48;99301.00;4998523;28;20226;-57
2023/01/30 04:37:47;;;;;;;15.53;8.27;;;;;;;0.09;73.36;99303.66;4990665;28;20224;-59
2023/01/30 04:40:20;;;;;;;14.10;8.47;;;;;;;0.16;72.91;99293.91;4994218;28;20235;-59
2023/01/30 04:42:46;;;;;;;14.03;7.73;;;;;;;0.13;72.81;99310.31;4991289;28;20305;-56
2023/01/30 04:45:31;;;;;;;13.90;7.73;;;;;;;0.17;71.95;99305.84;4992574;28;20236;-56
2023/01/30 04:47:58;;;;;;;14.97;8.40;;;;;;;0.20;71.69;99308.28;4992739;28;22794;-58
2023/01/30 04:50:25;;;;;;;14.57;7.40;;;;;;;0.26;70.86;99314.00;4992536;28;20238;-58
2023/01/30 04:52:51;;;;;;;11.40;6.97;;;;;;;0.29;70.63;99320.72;4994083;28;20236;-55
2023/01/30 04:55:20;;;;;;;12.80;6.90;;;;;;;0.31;71.72;99311.22;4997227;28;20227;-58
2023/01/30 04:57:46;;;;;;;12.17;6.63;;;;;;;0.34;72.09;99302.56;4995726;28;20240;-57
2023/01/30 05:00:13;;;;;;;13.73;6.83;;;;;;;0.43;71.45;99308.09;4994178;28;20280;-59
2023/01/30 05:02:48;;;;;;;13.47;6.97;;;;;;;0.41;72.56;99303.94;4993717;28;20781;-58
2023/01/30 05:05:15;;;;;;;12.77;6.53;;;;;;;0.42;73.06;99306.44;4991525;28;20228;-58
2023/01/30 05:07:42;;;;;;;11.83;5.87;;;;;;;0.43;73.23;99302.97;4998654;28;20240;-58
2023/01/30 05:10:10;;;;;;;12.93;6.87;;;;;;;0.50;73.67;99305.25;4998250;28;20238;-58
2023/01/30 05:12:38;;;;;;;12.87;6.40;;;;;;;0.52;73.67;99298.31;4997058;28;20233;-57
2023/01/30 05:15:05;;;;;;;10.90;5.77;;;;;;;0.52;73.89;99300.88;4990211;28;20237;-58
2023/01/30 05:17:32;;;;;;;9.73;5.40;;;;;;;0.54;73.25;99289.63;4999418;28;20293;-57
2023/01/30 05:19:59;;;;;;;12.30;5.63;;;;;;;0.55;73.67;99282.75;4996243;28;20239;-57
2023/01/30 05:22:25;;;;;;;12.30;6.27;;;;;;;0.57;73.20;99278.38;4996664;28;20231;-58
2023/01/30 05:24:52;;;;;;;8.87;4.97;;;;;;;0.55;73.31;99263.03;4996559;28;20239;-58
2023/01/30 05:27:18;;;;;;;10.23;5.53;;;;;;;0.56;74.20;99263.88;4994088;28;20778;-58
2023/01/30 05:29:46;;;;;;;8.73;5.17;;;;;;;0.61;75.51;99261.06;4993474;28;20240;-57
2023/01/30 05:32:14;;;;;;;9.37;4.80;;;;;;;0.56;75.29;99262.13;4996939;28;20602;-58
2023/01/30 05:34:40;;;;;;;7.83;4.70;;;;;;;0.66;76.59;99257.41;4993967;28;20231;-56
2023/01/30 05:37:07;;;;;;;9.30;4.80;;;;;;;0.72;75.37;99251.97;4993426;28;20290;-56
2023/01/30 05:39:35;;;;;;;8.80;4.60;;;;;;;0.74;74.88;99277.59;4990372;28;20228;-57
2023/01/30 05:42:01;;;;;;;8.67;5.10;;;;;;;0.77;75.40;99279.19;4991595;28;20246;-56
2023/01/30 05:44:28;;;;;;;9.13;5.07;;;;;;;0.82;75.19;99278.06;4997542;28;20322;-57
2023/01/30 05:46:56;;;;;;;7.87;4.47;;;;;;;0.86;75.17;99287.28;4992850;28;20255;-58
2023/01/30 05:49:23;;;;;;;7.60;4.60;;;;;;;0.93;75.22;99290.41;4998382;28;20241;-57
2023/01/30 05:51:50;;;;;;;8.23;4.70;;;;;;;0.90;75.01;99279.44;4991614;28;20466;-58
2023/01/30 05:54:16;;;;;;;8.27;4.57;;;;;;;0.91;75.10;99274.22;4993616;28;20216;-58
2023/01/30 05:56:43;;;;;;;8.03;4.70;;;;;;;0.95;75.58;99265.47;4995804;28;20240;-57
2023/01/30 05:59:11;;;;;;;7.07;4.10;;;;;;;0.94;77.22;99253.53;4995313;28;20290;-58
2023/01/30 06:01:38;;;;;;;11.80;6.83;;;;;;;0.98;77.98;99249.91;4995804;28;20901;-56
2023/01/30 06:04:06;;;;;;;6.10;3.60;;;;;;;1.06;77.95;99261.56;4991166;28;20682;-57
2023/01/30 06:06:32;;;;;;;7.63;4.63;;;;;;;1.05;78.72;99260.69;4993523;28;20224;-57
2023/01/30 06:08:59;;;;;;;9.20;6.10;;;;;;;1.11;78.72;99277.56;4988173;28;20253;-56
2023/01/30 06:11:26;;;;;;;8.30;4.47;;;;;;;1.14;77.95;99269.69;4992836;28;20248;-57
2023/01/30 06:13:52;;;;;;;8.67;4.80;;;;;;;1.17;77.93;99252.41;4993223;28;20227;-56
2023/01/30 06:16:20;;;;;;;8.30;4.77;;;;;;;1.16;77.66;99247.31;4989810;28;20687;-56
2023/01/30 06:18:46;;;;;;;7.73;4.47;;;;;;;1.15;76.39;99246.50;4993046;28;20236;-57
2023/01/30 06:21:15;;;;;;;11.27;4.67;;;;;;;1.16;76.53;99239.59;4994367;28;20250;-58
2023/01/30 06:23:42;;;;;;;7.70;4.20;;;;;;;1.14;77.58;99259.41;4991186;28;20247;-56
2023/01/30 06:26:09;;;;;;;8.07;4.50;;;;;;;1.14;76.26;99254.25;4995805;28;20302;-57
2023/01/30 06:28:36;;;;;;;7.90;3.63;;;;;;;1.20;75.59;99271.16;4989323;28;20773;-57
2023/01/30 06:31:05;;;;;;;8.03;4.50;;;;;;;1.15;75.34;99256.78;4992623;28;20741;-54
2023/01/30 06:33:31;;;;;;;6.83;4.13;;;;;;;1.14;76.56;99257.69;4990723;28;20263;-58
2023/01/30 06:35:58;;;;;;;8.43;5.07;;;;;;;1.10;77.44;99243.31;4991577;28;20232;-56
2023/01/30 06:38:26;;;;;;;12.90;4.03;;;;;;;1.12;79.10;99258.66;4994065;28;20248;-57
2023/01/30 06:40:52;;;;;;;10.33;5.53;;;;;;;1.08;79.44;99247.69;4991673;28;20739;-57
2023/01/30 06:43:19;;;;;;;7.53;4.57;;;;;;;1.08;79.95;99239.97;4995288;28;20707;-57
2023/01/30 06:45:45;;;;;;;9.20;3.97;;;;;;;1.08;81.03;99239.13;4992993;28;20318;-58
2023/01/30 06:48:12;;;;;;;8.67;5.23;;;;;;;1.06;80.76;99220.41;4992926;28;20239;-56
2023/01/30 06:50:39;;;;;;;8.93;5.80;;;;;;;1.04;79.96;99241.03;4991875;28;20571;-59
2023/01/30 06:53:07;;;;;;;5.90;3.87;;;;;;;1.03;79.52;99232.50;4994809;28;20240;-57
2023/01/30 06:55:37;;;;;;;6.10;3.40;;;;;;;1.09;80.76;99238.22;4995921;28;20239;-58
2023/01/30 06:58:05;;;;;;;5.37;3.03;;;;;;;1.06;80.10;99212.69;4992569;28;20235;-55
2023/01/30 07:00:32;;;;;;;8.07;3.87;;;;;;;1.02;81.38;99224.84;4994276;28;20243;-57
2023/01/30 07:02:59;;;;;;;7.00;3.72;;;;;;;1.13;81.27;99216.59;4997796;28;20454;-57
2023/01/30 07:05:27;;;;;;;6.20;3.67;;;;;;;1.17;81.47;99239.53;4997121;28;20240;-57
2023/01/30 07:07:54;;;;;;;5.93;3.20;;;;;;;1.23;79.77;99251.25;4992841;28;20311;-55
2023/01/30 07:10:20;;;;;;;5.83;3.33;;;;;;;1.21;79.95;99258.19;4988256;28;20247;-56
2023/01/30 07:12:48;;;;;;;6.17;3.20;;;;;;;1.25;77.22;99264.84;4989145;28;20236;-57
2023/01/30 07:15:15;;;;;;;4.73;2.97;;;;;;;1.24;77.65;99283.78;4990231;28;20754;-58
2023/01/30 07:17:42;;;;;;;6.60;3.43;;;;;;;1.23;75.28;99284.69;4986306;28;20239;-56
2023/01/30 07:20:10;;;;;;;6.97;3.90;;;;;;;1.27;75.68;99269.94;4990598;28;20580;-58
2023/01/30 07:22:36;;;;;;;5.60;3.80;;;;;;;1.21;75.78;99273.63;4994216;28;20246;-57
2023/01/30 07:25:04;;;;;;;5.57;3.60;;;;;;;1.25;75.58;99274.31;4991356;28;20232;-58
2023/01/30 07:27:30;;;;;;;6.67;3.67;;;;;;;1.27;76.46;99281.06;4994637;28;20225;-58
2023/01/30 07:29:58;;;;;;;6.83;3.80;;;;;;;1.28;76.90;99279.31;4993412;28;20232;-58
2023/01/30 07:32:25;;;;;;;6.37;3.93;;;;;;;1.26;77.96;99279.38;4993882;28;20241;-58
2023/01/30 07:34:51;;;;;;;6.43;3.60;;;;;;;1.30;78.07;99292.94;4989943;28;20235;-55
2023/01/30 07:37:18;;;;;;;7.73;4.07;;;;;;;1.32;78.09;99291.13;4993705;28;20240;-56
2023/01/30 07:39:45;;;;;;;6.23;3.53;;;;;;;1.32;77.24;99291.94;4991141;28;20278;-58
2023/01/30 07:42:11;;;;;;;10.50;4.67;;;;;;;1.17;80.17;99295.25;4990260;28;20240;-57
2023/01/30 07:44:38;;;;;;;7.03;3.67;;;;;;;1.17;80.10;99282.41;4993018;28;20235;-57
2023/01/30 07:47:06;;;;;;;5.90;3.40;;;;;;;1.13;81.48;99292.03;4990741;28;20231;-58
2023/01/30 07:49:32;;;;;;;10.43;5.03;;;;;;;1.17;81.83;99298.69;4993480;28;20242;-59
2023/01/30 07:51:59;;;;;;;12.80;6.00;;;;;;;1.18;79.63;99281.50;4988442;28;20627;-57
2023/01/30 07:54:26;;;;;;;8.63;4.70;;;;;;;1.27;77.93;99286.19;4993458;28;20278;-56
2023/01/30 07:56:53;;;;;;;6.93;3.60;;;;;;;1.33;76.34;99275.59;4991068;28;20229;-58
2023/01/30 07:59:19;;;;;;;9.00;4.27;;;;;;;1.32;77.98;99271.38;4994677;28;20232;-57
2023/01/30 08:01:46;;;;;;;9.13;4.70;;;;;;;1.37;78.29;99272.88;4990375;28;20606;-57
2023/01/30 08:04:14;;;;;;;8.93;5.00;;;;;;;1.42;77.50;99287.19;4993466;28;20242;-58
2023/01/30 08:06:41;;;;;;;8.50;4.80;;;;;;;1.44;77.09;99292.25;4992039;28;20225;-56
2023/01/30 08:09:07;;;;;;;6.73;4.30;;;;;;;1.49;77.67;99315.19;4994586;28;20231;-58
2023/01/30 08:11:35;;;;;;;7.00;4.00;;;;;;;1.51;78.27;99321.91;4991212;28;20793;-57
2023/01/30 08:14:02;;;;;;;6.40;4.23;;;;;;;1.47;78.44;99313.53;4989357;28;20268;-58
2023/01/30 08:16:30;;;;;;;7.93;4.80;;;;;;;1.48;79.97;99329.78;4991170;28;20449;-57
2023/01/30 08:18:57;;;;;;;6.37;4.10;;;;;;;1.45;80.98;99320.50;4990872;28;20260;-58
2023/01/30 08:21:25;;;;;;;7.20;4.10;;;;;;;1.41;82.01;99328.41;4995920;28;20239;-58
2023/01/30 08:23:52;;;;;;;7.43;4.57;;;;;;;1.44;82.14;99312.84;4987616;28;20592;-59
2023/01/30 08:26:18;;;;;;;6.67;3.50;;;;;;;1.41;85.37;99306.09;4992670;28;20287;-57
2023/01/30 08:28:45;;;;;;;6.40;3.47;;;;;;;1.42;86.54;99276.91;4988993;28;20294;-58
2023/01/30 08:31:13;;;;;;;7.90;4.90;;;;;;;1.36;87.63;99307.22;4991716;28;20809;-59
2023/01/30 08:33:39;;;;;;;29.70;13.77;;;;;;;1.30;87.96;99303.22;4990587;28;20243;-59
2023/01/30 08:36:07;;;;;;;9.73;4.57;;;;;;;1.35;87.93;99316.69;4988182;28;20261;-57
2023/01/30 08:38:35;;;;;;;11.47;6.33;;;;;;;1.41;88.01;99325.84;4996010;28;20541;-58
2023/01/30 08:41:05;;;;;;;7.77;4.43;;;;;;;1.36;87.48;99326.09;4990321;28;20275;-59
2023/01/30 08:43:32;;;;;;;7.73;4.10;;;;;;;1.40;88.06;99324.19;5005537;28;20714;-57
2023/01/30 08:45:58;;;;;;;9.20;4.17;;;;;;;1.43;89.56;99332.59;4990780;28;20286;-58
2023/01/30 08:48:25;;;;;;;8.87;4.07;;;;;;;1.53;88.02;99311.56;4990067;28;20240;-58
2023/01/30 08:50:52;;;;;;;7.83;4.27;;;;;;;1.49;89.40;99292.84;4992662;28;20236;-58
2023/01/30 08:53:19;;;;;;;10.40;5.07;;;;;;;1.53;89.08;99293.53;4992934;28;20712;-57
2023/01/30 08:55:50;;;;;;;8.57;3.93;;;;;;;1.56;89.79;99289.06;4990226;28;20224;-58
2023/01/30 08:58:16;;;;;;;7.30;4.23;;;;;;;1.71;89.38;99274.56;4992566;28;20241;-58
2023/01/30 09:00:45;;;;;;;8.97;4.40;;;;;;;1.75;88.83;99299.25;4976997;28;20302;-58
2023/01/30 09:03:12;;;;;;;17.90;8.97;;;;;;;1.89;87.84;99290.84;4995392;28;20240;-59
2023/01/30 09:05:39;;;;;;;7.63;4.60;;;;;;;1.81;87.22;99272.38;4994307;28;20233;-58
2023/01/30 09:08:06;;;;;;;5.93;3.53;;;;;;;1.84;87.48;99264.50;4995926;28;20232;-57
2023/01/30 09:10:32;;;;;;;5.33;3.47;;;;;;;1.83;87.35;99280.84;4990633;28;20283;-58
2023/01/30 09:13:00;;;;;;;6.77;3.80;;;;;;;1.95;87.22;99281.13;5007871;28;22253;-58
2023/01/30 09:15:27;;;;;;;8.00;4.33;;;;;;;1.97;84.36;99282.72;4994854;28;20464;-57
2023/01/30 09:17:54;;;;;;;6.17;3.63;;;;;;;1.69;88.67;99281.53;4991739;28;21036;-57
2023/01/30 09:20:20;;;;;;;7.53;3.80;;;;;;;1.74;89.49;99282.16;4997788;28;20221;-58
2023/01/30 09:22:47;;;;;;;8.33;4.57;;;;;;;1.65;88.04;99276.66;4996207;28;20593;-58
2023/01/30 09:25:13;;;;;;;6.97;4.20;;;;;;;1.69;90.07;99281.53;4995865;28;20237;-57
2023/01/30 09:27:43;;;;;;;8.30;4.00;;;;;;;1.66;90.27;99278.31;4992353;28;20584;-57
2023/01/30 09:30:13;;;;;;;8.37;3.67;;;;;;;1.69;91.65;99280.72;5010102;28;20236;-57
2023/01/30 09:32:40;;;;;;;6.60;3.43;;;;;;;1.73;88.93;99284.81;4994068;28;20240;-57
2023/01/30 09:35:07;;;;;;;5.73;3.57;;;;;;;1.79;89.83;99287.06;4988988;28;20237;-59
2023/01/30 09:37:34;;;;;;;6.13;3.77;;;;;;;1.81;89.94;99285.25;4995012;28;20232;-57
2023/01/30 09:40:00;;;;;;;6.60;3.63;;;;;;;1.90;89.04;99261.59;4991755;28;20243;-56
2023/01/30 09:42:49;;;;;;;7.63;3.60;;;;;;;1.99;90.03;99269.78;4992099;28;20248;-56
2023/01/30 09:45:47;;;;;;;6.40;3.88;;;;;;;2.13;88.28;99264.69;4984700;28;20997;-57
2023/01/30 09:48:20;;;;;;;8.70;4.77;;;;;;;2.28;87.70;99262.22;4992564;28;20240;-56
2023/01/30 09:51:06;;;;;;;4.40;2.90;;;;;;;2.25;88.53;99281.25;4989262;28;20236;-56
2023/01/30 09:53:39;;;;;;;6.20;3.47;;;;;;;2.34;89.20;99291.09;5000010;28;20239;-57
2023/01/30 09:56:05;;;;;;;8.63;3.67;;;;;;;2.20;86.95;99276.34;4996866;28;20240;-54
2023/01/30 09:58:42;;;;;;;9.63;3.93;;;;;;;2.28;88.53;99259.66;4998738;28;20251;-56
2023/01/30 10:01:16;;;;;;;6.07;3.70;;;;;;;2.30;90.15;99250.94;4993311;28;20327;-56
2023/01/30 10:03:55;;;;;;;6.17;3.90;;;;;;;2.55;89.79;99256.50;4990176;28;20296;-57
2023/01/30 10:06:22;;;;;;;7.23;3.90;;;;;;;2.30;90.52;99265.56;4996361;28;20317;-56
2023/01/30 10:08:57;;;;;;;6.33;3.90;;;;;;;2.38;90.51;99257.44;4991541;28;20220;-56
2023/01/30 10:11:39;;;;;;;9.30;4.50;;;;;;;2.24;91.29;99258.16;4994636;28;20274;-56
2023/01/30 10:14:21;;;;;;;8.10;3.57;;;;;;;2.32;92.02;99246.53;4994571;28;20303;-56
2023/01/30 10:17:01;;;;;;;7.23;4.27;;;;;;;2.35;92.18;99258.41;4995106;28;20221;-56
2023/01/30 10:19:49;;;;;;;11.47;6.63;;;;;;;2.59;92.90;99264.00;4996640;28;20290;-57
2023/01/30 10:22:31;;;;;;;12.37;5.83;;;;;;;2.23;93.27;99270.22;4995837;28;20228;-57
2023/01/30 10:25:08;;;;;;;10.77;5.13;;;;;;;2.25;94.50;99272.69;4993420;28;20248;-57
2023/01/30 10:27:36;;;;;;;6.33;3.50;;;;;;;2.16;95.19;99256.81;4996856;28;20643;-56
2023/01/30 10:30:07;;;;;;;10.70;5.10;;;;;;;2.10;97.24;99262.31;4990914;28;20238;-55
2023/01/30 10:32:43;;;;;;;10.10;6.17;;;;;;;2.03;97.99;99256.63;4998235;28;20698;-56
2023/01/30 10:35:17;;;;;;;13.67;9.30;;;;;;;2.02;97.66;99239.53;4991188;28;20224;-57
2023/01/30 10:37:50;;;;;;;7.23;4.40;;;;;;;2.13;97.51;99251.81;4991713;28;20225;-56
2023/01/30 10:40:24;;;;;;;9.03;5.87;;;;;;;2.17;98.13;99253.31;4996269;28;20229;-53
2023/01/30 10:42:59;;;;;;;8.97;4.97;;;;;;;2.27;98.74;99247.69;4993904;28;20720;-56
2023/01/30 10:45:32;;;;;;;7.57;4.43;;;;;;;2.26;97.77;99238.28;4996544;28;20228;-55
2023/01/30 10:48:19;;;;;;;8.33;4.37;;;;;;;2.31;95.11;99238.88;4988811;28;20620;-55
2023/01/30 10:50:50;;;;;;;8.67;5.70;;;;;;;2.16;98.51;99237.97;4994238;28;20639;-57
2023/01/30 10:53:23;;;;;;;8.83;4.57;;;;;;;2.11;98.86;99235.66;4995087;28;20303;-58
2023/01/30 10:55:56;;;;;;;9.27;5.43;;;;;;;2.15;99.11;99228.56;4999848;28;20233;-54
2023/01/30 10:58:32;;;;;;;7.90;5.30;;;;;;;2.04;99.97;99229.16;4991604;28;20584;-57
2023/01/30 11:01:01;;;;;;;8.13;5.23;;;;;;;1.97;99.68;99220.09;4991015;28;20222;-56
2023/01/30 11:03:36;;;;;;;10.17;5.40;;;;;;;2.09;100.00;99213.44;4994406;28;20235;-55
2023/01/30 11:06:07;;;;;;;6.07;3.93;;;;;;;2.15;99.94;99215.69;4990664;28;20239;-56
2023/01/30 11:08:35;;;;;;;8.03;4.63;;;;;;;2.13;100.00;99220.91;4991924;28;20224;-54
2023/01/30 11:11:23;;;;;;;9.77;5.17;;;;;;;2.15;99.75;99208.78;4989022;28;20241;-57
2023/01/30 11:13:50;;;;;;;7.87;4.87;;;;;;;1.96;100.00;99202.97;4988988;28;20302;-58
2023/01/30 11:16:16;;;;;;;8.98;5.75;;;;;;;2.11;99.82;99206.47;4994393;28;20568;-56
2023/01/30 11:18:50;;;;;;;9.77;5.60;;;;;;;2.02;100.00;99197.50;4990274;28;20232;-57
2023/01/30 11:21:22;;;;;;;8.00;4.57;;;;;;;1.97;100.00;99205.47;4995529;28;20287;-56
2023/01/30 11:23:49;;;;;;;9.07;5.00;;;;;;;2.08;100.00;99198.91;4987064;28;20228;-57
2023/01/30 11:26:20;;;;;;;6.60;3.90;;;;;;;2.14;100.00;99183.94;4993569;28;20228;-56
2023/01/30 11:28:46;;;;;;;8.27;4.47;;;;;;;2.22;100.00;99199.81;4988187;28;20770;-55
2023/01/30 11:31:18;;;;;;;7.60;4.23;;;;;;;2.26;100.00;99186.78;4994327;28;20255;-56
2023/01/30 11:33:45;;;;;;;8.07;4.80;;;;;;;2.26;100.00;99187.63;4990116;28;20676;-57
2023/01/30 11:36:25;;;;;;;8.03;3.93;;;;;;;2.33;100.00;99194.09;4993605;28;20236;-57
2023/01/30 11:38:57;;;;;;;7.13;3.83;;;;;;;2.20;100.00;99193.91;5005171;28;20282;-56
2023/01/30 11:41:24;;;;;;;9.80;4.60;;;;;;;2.24;100.00;99206.63;4990852;28;20251;-56
2023/01/30 11:43:50;;;;;;;10.30;5.37;;;;;;;2.18;100.00;99193.16;4992382;28;20697;-56
2023/01/30 11:46:19;;;;;;;6.77;5.07;;;;;;;2.09;100.00;99198.84;4991024;28;20235;-57
2023/01/30 11:48:52;;;;;;;21.23;9.07;;;;;;;2.18;100.00;99192.34;4989901;28;20227;-56
2023/01/30 11:51:20;;;;;;;7.57;4.50;;;;;;;2.30;100.00;99185.69;4994499;28;20310;-57
2023/01/30 11:53:50;;;;;;;7.50;4.10;;;;;;;2.35;100.00;99197.41;4992355;28;20228;-55